sensor_id;sensor_type;location;lat;lon;timestamp;temperature;humidity
12849;DHT22;6493;50.928;7.172;2023-04-25T00:00:23;4.40;54.50
12849;DHT22;6493;50.928;7.172;2023-04-25T00:05:27;4.30;54.40
12849;DHT22;6493;50.928;7.172;2023-04-25T00:10:31;4.30;54.40
12849;DHT22;6493;50.928;7.172;2023-04-25T00:15:36;4.20;54.40
12849;DHT22;6493;50.928;7.172;2023-04-25T00:20:40;4.20;54.40
12849;DHT22;6493;50.928;7.172;2023-04-25T00:25:47;4.10;54.50
12849;DHT22;6493;50.928;7.172;2023-04-25T00:30:52;4.10;54.50
12849;DHT22;6493;50.928;7.172;2023-04-25T00:35:55;4.10;54.50
12849;DHT22;6493;50.928;7.172;2023-04-25T00:40:58;4.10;54.60
12849;DHT22;6493;50.928;7.172;2023-04-25T00:46:03;4.00;54.50
12849;DHT22;6493;50.928;7.172;2023-04-25T00:51:06;3.90;54.50
12849;DHT22;6493;50.928;7.172;2023-04-25T00:56:09;3.80;54.50
12849;DHT22;6493;50.928;7.172;2023-04-25T01:01:14;3.80;54.50
12849;DHT22;6493;50.928;7.172;2023-04-25T01:06:18;3.70;55.40
12849;DHT22;6493;50.928;7.172;2023-04-25T01:11:21;3.70;55.40
12849;DHT22;6493;50.928;7.172;2023-04-25T01:16:26;3.60;55.40
12849;DHT22;6493;50.928;7.172;2023-04-25T01:21:30;3.50;55.40
12849;DHT22;6493;50.928;7.172;2023-04-25T01:26:34;3.50;55.50
12849;DHT22;6493;50.928;7.172;2023-04-25T01:31:38;3.40;55.50
12849;DHT22;6493;50.928;7.172;2023-04-25T01:36:42;3.40;55.60
12849;DHT22;6493;50.928;7.172;2023-04-25T01:41:47;3.40;55.80
12849;DHT22;6493;50.928;7.172;2023-04-25T01:46:50;3.40;56.00
12849;DHT22;6493;50.928;7.172;2023-04-25T01:51:55;3.40;56.00
12849;DHT22;6493;50.928;7.172;2023-04-25T01:56:58;3.50;56.10
12849;DHT22;6493;50.928;7.172;2023-04-25T02:02:02;3.50;56.30
12849;DHT22;6493;50.928;7.172;2023-04-25T02:07:08;3.60;56.30
12849;DHT22;6493;50.928;7.172;2023-04-25T02:12:20;3.60;56.20
12849;DHT22;6493;50.928;7.172;2023-04-25T02:17:36;3.60;56.10
12849;DHT22;6493;50.928;7.172;2023-04-25T02:22:42;3.60;56.10
12849;DHT22;6493;50.928;7.172;2023-04-25T02:27:45;3.60;56.00
12849;DHT22;6493;50.928;7.172;2023-04-25T02:32:48;3.60;56.00
12849;DHT22;6493;50.928;7.172;2023-04-25T02:37:53;3.50;55.90
12849;DHT22;6493;50.928;7.172;2023-04-25T02:42:56;3.50;55.90
12849;DHT22;6493;50.928;7.172;2023-04-25T02:48:01;3.40;55.80
12849;DHT22;6493;50.928;7.172;2023-04-25T02:53:07;3.30;55.90
12849;DHT22;6493;50.928;7.172;2023-04-25T02:58:18;3.30;56.00
12849;DHT22;6493;50.928;7.172;2023-04-25T03:03:25;3.30;56.00
12849;DHT22;6493;50.928;7.172;2023-04-25T03:08:31;3.30;56.10
12849;DHT22;6493;50.928;7.172;2023-04-25T03:13:36;3.30;56.10
12849;DHT22;6493;50.928;7.172;2023-04-25T03:18:40;3.30;56.10
12849;DHT22;6493;50.928;7.172;2023-04-25T03:23:45;3.30;56.20
12849;DHT22;6493;50.928;7.172;2023-04-25T03:28:48;3.30;56.20
12849;DHT22;6493;50.928;7.172;2023-04-25T03:33:51;3.30;56.20
12849;DHT22;6493;50.928;7.172;2023-04-25T03:38:58;3.30;56.20
12849;DHT22;6493;50.928;7.172;2023-04-25T03:44:04;3.30;56.30
12849;DHT22;6493;50.928;7.172;2023-04-25T03:49:07;3.30;56.30
12849;DHT22;6493;50.928;7.172;2023-04-25T03:54:38;3.30;56.30
12849;DHT22;6493;50.928;7.172;2023-04-25T03:59:45;3.30;56.30
12849;DHT22;6493;50.928;7.172;2023-04-25T04:04:50;3.30;56.30
12849;DHT22;6493;50.928;7.172;2023-04-25T04:09:55;3.30;56.40
12849;DHT22;6493;50.928;7.172;2023-04-25T04:15:05;3.40;56.50
12849;DHT22;6493;50.928;7.172;2023-04-25T04:20:10;3.40;56.50
12849;DHT22;6493;50.928;7.172;2023-04-25T04:25:16;3.40;56.50
12849;DHT22;6493;50.928;7.172;2023-04-25T04:30:38;3.50;56.60
12849;DHT22;6493;50.928;7.172;2023-04-25T04:35:43;3.50;56.70
12849;DHT22;6493;50.928;7.172;2023-04-25T04:40:48;3.40;56.60
12849;DHT22;6493;50.928;7.172;2023-04-25T04:46:05;3.50;56.80
12849;DHT22;6493;50.928;7.172;2023-04-25T04:51:17;3.50;57.30
12849;DHT22;6493;50.928;7.172;2023-04-25T04:56:22;3.50;56.80
12849;DHT22;6493;50.928;7.172;2023-04-25T05:01:48;3.60;56.90
12849;DHT22;6493;50.928;7.172;2023-04-25T05:07:14;3.70;57.50
12849;DHT22;6493;50.928;7.172;2023-04-25T05:12:26;3.70;56.90
12849;DHT22;6493;50.928;7.172;2023-04-25T05:17:55;3.70;56.90
12849;DHT22;6493;50.928;7.172;2023-04-25T05:22:59;3.80;56.10
12849;DHT22;6493;50.928;7.172;2023-04-25T05:28:17;3.80;56.20
12849;DHT22;6493;50.928;7.172;2023-04-25T05:33:37;3.90;56.20
12849;DHT22;6493;50.928;7.172;2023-04-25T05:38:42;3.90;56.30
12849;DHT22;6493;50.928;7.172;2023-04-25T05:43:55;3.90;56.30
12849;DHT22;6493;50.928;7.172;2023-04-25T05:49:21;4.00;56.30
12849;DHT22;6493;50.928;7.172;2023-04-25T05:54:39;4.00;56.30
12849;DHT22;6493;50.928;7.172;2023-04-25T05:59:43;4.00;56.40
12849;DHT22;6493;50.928;7.172;2023-04-25T06:04:49;4.10;56.60
12849;DHT22;6493;50.928;7.172;2023-04-25T06:09:53;4.10;56.50
12849;DHT22;6493;50.928;7.172;2023-04-25T06:14:58;4.20;56.60
12849;DHT22;6493;50.928;7.172;2023-04-25T06:20:01;4.20;56.70
12849;DHT22;6493;50.928;7.172;2023-04-25T06:25:08;4.20;56.50
12849;DHT22;6493;50.928;7.172;2023-04-25T06:30:13;4.20;56.50
12849;DHT22;6493;50.928;7.172;2023-04-25T06:35:17;4.30;56.70
12849;DHT22;6493;50.928;7.172;2023-04-25T06:40:20;4.40;56.70
12849;DHT22;6493;50.928;7.172;2023-04-25T06:45:25;4.50;57.40
12849;DHT22;6493;50.928;7.172;2023-04-25T06:50:28;4.60;57.20
12849;DHT22;6493;50.928;7.172;2023-04-25T06:55:31;4.80;57.30
12849;DHT22;6493;50.928;7.172;2023-04-25T07:00:47;5.00;57.30
12849;DHT22;6493;50.928;7.172;2023-04-25T07:05:52;5.30;57.60
12849;DHT22;6493;50.928;7.172;2023-04-25T07:10:55;5.60;57.80
12849;DHT22;6493;50.928;7.172;2023-04-25T07:16:00;5.90;57.80
12849;DHT22;6493;50.928;7.172;2023-04-25T07:21:06;6.20;57.50
12849;DHT22;6493;50.928;7.172;2023-04-25T07:26:11;6.40;57.00
12849;DHT22;6493;50.928;7.172;2023-04-25T07:31:33;6.60;56.80
12849;DHT22;6493;50.928;7.172;2023-04-25T07:36:36;6.80;56.80
12849;DHT22;6493;50.928;7.172;2023-04-25T07:41:40;6.90;56.70
12849;DHT22;6493;50.928;7.172;2023-04-25T07:46:49;7.10;56.70
12849;DHT22;6493;50.928;7.172;2023-04-25T07:51:53;7.20;56.20
12849;DHT22;6493;50.928;7.172;2023-04-25T07:56:58;7.20;56.00
12849;DHT22;6493;50.928;7.172;2023-04-25T08:02:05;7.30;55.50
12849;DHT22;6493;50.928;7.172;2023-04-25T08:07:08;7.20;55.30
12849;DHT22;6493;50.928;7.172;2023-04-25T08:12:35;7.10;55.00
12849;DHT22;6493;50.928;7.172;2023-04-25T08:17:41;7.00;54.90
12849;DHT22;6493;50.928;7.172;2023-04-25T08:22:46;6.90;55.60
12849;DHT22;6493;50.928;7.172;2023-04-25T08:28:08;6.90;55.30
12849;DHT22;6493;50.928;7.172;2023-04-25T08:33:13;7.00;55.50
12849;DHT22;6493;50.928;7.172;2023-04-25T08:38:45;7.20;55.40
12849;DHT22;6493;50.928;7.172;2023-04-25T08:43:53;7.40;55.20
12849;DHT22;6493;50.928;7.172;2023-04-25T08:49:01;7.50;54.90
12849;DHT22;6493;50.928;7.172;2023-04-25T08:54:08;7.50;54.30
12849;DHT22;6493;50.928;7.172;2023-04-25T08:59:33;7.40;54.30
12849;DHT22;6493;50.928;7.172;2023-04-25T09:04:43;7.30;54.00
12849;DHT22;6493;50.928;7.172;2023-04-25T09:09:47;7.20;53.80
12849;DHT22;6493;50.928;7.172;2023-04-25T09:15:04;7.00;53.60
12849;DHT22;6493;50.928;7.172;2023-04-25T09:20:41;6.90;53.50
12849;DHT22;6493;50.928;7.172;2023-04-25T09:26:03;6.70;53.50
12849;DHT22;6493;50.928;7.172;2023-04-25T09:31:06;6.70;54.00
12849;DHT22;6493;50.928;7.172;2023-04-25T09:36:26;6.70;53.90
12849;DHT22;6493;50.928;7.172;2023-04-25T09:41:41;6.70;54.10
12849;DHT22;6493;50.928;7.172;2023-04-25T09:46:49;6.80;54.10
12849;DHT22;6493;50.928;7.172;2023-04-25T09:51:59;7.00;54.70
12849;DHT22;6493;50.928;7.172;2023-04-25T09:57:13;7.30;55.10
12849;DHT22;6493;50.928;7.172;2023-04-25T10:02:18;7.50;54.50
12849;DHT22;6493;50.928;7.172;2023-04-25T10:07:29;7.60;54.00
12849;DHT22;6493;50.928;7.172;2023-04-25T10:12:34;7.60;53.50
12849;DHT22;6493;50.928;7.172;2023-04-25T10:17:37;7.60;53.70
12849;DHT22;6493;50.928;7.172;2023-04-25T10:22:44;7.70;53.40
12849;DHT22;6493;50.928;7.172;2023-04-25T10:27:50;7.70;53.60
12849;DHT22;6493;50.928;7.172;2023-04-25T10:32:55;7.80;53.60
12849;DHT22;6493;50.928;7.172;2023-04-25T10:38:11;7.80;52.90
12849;DHT22;6493;50.928;7.172;2023-04-25T10:43:34;7.80;52.80
12849;DHT22;6493;50.928;7.172;2023-04-25T10:48:37;7.80;52.70
12849;DHT22;6493;50.928;7.172;2023-04-25T10:53:57;7.90;52.60
12849;DHT22;6493;50.928;7.172;2023-04-25T10:59:05;8.00;52.90
12849;DHT22;6493;50.928;7.172;2023-04-25T11:04:22;8.20;51.90
12849;DHT22;6493;50.928;7.172;2023-04-25T11:09:28;8.20;51.60
12849;DHT22;6493;50.928;7.172;2023-04-25T11:14:31;8.10;51.50
12849;DHT22;6493;50.928;7.172;2023-04-25T11:19:35;8.00;51.20
12849;DHT22;6493;50.928;7.172;2023-04-25T11:24:39;7.80;51.50
12849;DHT22;6493;50.928;7.172;2023-04-25T11:29:42;7.70;51.90
12849;DHT22;6493;50.928;7.172;2023-04-25T11:34:46;7.60;52.10
12849;DHT22;6493;50.928;7.172;2023-04-25T11:39:51;7.70;52.60
12849;DHT22;6493;50.928;7.172;2023-04-25T11:44:54;7.80;52.40
12849;DHT22;6493;50.928;7.172;2023-04-25T11:49:58;8.00;52.60
12849;DHT22;6493;50.928;7.172;2023-04-25T11:55:06;8.20;52.50
12849;DHT22;6493;50.928;7.172;2023-04-25T12:00:14;8.50;52.60
12849;DHT22;6493;50.928;7.172;2023-04-25T12:05:20;8.80;52.30
12849;DHT22;6493;50.928;7.172;2023-04-25T12:10:30;9.00;52.00
12849;DHT22;6493;50.928;7.172;2023-04-25T12:15:33;9.20;52.10
12849;DHT22;6493;50.928;7.172;2023-04-25T12:20:37;9.50;51.70
12849;DHT22;6493;50.928;7.172;2023-04-25T12:25:43;9.70;52.70
12849;DHT22;6493;50.928;7.172;2023-04-25T12:30:57;9.80;51.00
12849;DHT22;6493;50.928;7.172;2023-04-25T12:36:02;9.80;48.70
12849;DHT22;6493;50.928;7.172;2023-04-25T12:41:11;9.90;50.50
12849;DHT22;6493;50.928;7.172;2023-04-25T12:46:15;10.10;51.80
12849;DHT22;6493;50.928;7.172;2023-04-25T12:51:18;10.40;51.00
12849;DHT22;6493;50.928;7.172;2023-04-25T12:56:22;10.70;50.80
12849;DHT22;6493;50.928;7.172;2023-04-25T13:01:26;10.90;50.60
12849;DHT22;6493;50.928;7.172;2023-04-25T13:06:30;10.90;49.30
12849;DHT22;6493;50.928;7.172;2023-04-25T13:11:34;10.90;49.10
12849;DHT22;6493;50.928;7.172;2023-04-25T13:16:38;10.70;49.10
12849;DHT22;6493;50.928;7.172;2023-04-25T13:21:43;10.50;49.10
12849;DHT22;6493;50.928;7.172;2023-04-25T13:26:48;10.40;49.40
12849;DHT22;6493;50.928;7.172;2023-04-25T13:31:51;10.20;48.00
12849;DHT22;6493;50.928;7.172;2023-04-25T13:36:54;10.00;48.60
12849;DHT22;6493;50.928;7.172;2023-04-25T13:41:59;9.90;47.60
12849;DHT22;6493;50.928;7.172;2023-04-25T13:47:02;9.90;48.90
12849;DHT22;6493;50.928;7.172;2023-04-25T13:52:05;10.10;49.00
12849;DHT22;6493;50.928;7.172;2023-04-25T13:57:11;10.20;49.40
12849;DHT22;6493;50.928;7.172;2023-04-25T14:02:14;10.40;49.00
12849;DHT22;6493;50.928;7.172;2023-04-25T14:07:18;10.50;49.00
12849;DHT22;6493;50.928;7.172;2023-04-25T14:12:24;10.40;48.50
12849;DHT22;6493;50.928;7.172;2023-04-25T14:17:28;10.40;49.00
12849;DHT22;6493;50.928;7.172;2023-04-25T14:22:31;10.40;48.90
12849;DHT22;6493;50.928;7.172;2023-04-25T14:27:37;10.50;49.20
12849;DHT22;6493;50.928;7.172;2023-04-25T14:32:40;10.50;48.50
12849;DHT22;6493;50.928;7.172;2023-04-25T14:37:43;10.50;48.10
12849;DHT22;6493;50.928;7.172;2023-04-25T14:42:48;10.50;48.00
12849;DHT22;6493;50.928;7.172;2023-04-25T14:47:51;10.40;48.20
12849;DHT22;6493;50.928;7.172;2023-04-25T14:52:54;10.30;47.90
12849;DHT22;6493;50.928;7.172;2023-04-25T14:58:01;10.20;47.80
12849;DHT22;6493;50.928;7.172;2023-04-25T15:03:04;10.20;47.40
12849;DHT22;6493;50.928;7.172;2023-04-25T15:08:09;10.10;47.50
12849;DHT22;6493;50.928;7.172;2023-04-25T15:13:15;10.10;47.40
12849;DHT22;6493;50.928;7.172;2023-04-25T15:18:19;10.00;47.20
12849;DHT22;6493;50.928;7.172;2023-04-25T15:23:24;10.00;47.40
12849;DHT22;6493;50.928;7.172;2023-04-25T15:28:31;10.00;47.60
12849;DHT22;6493;50.928;7.172;2023-04-25T15:33:35;10.00;47.20
12849;DHT22;6493;50.928;7.172;2023-04-25T15:38:39;9.90;47.40
12849;DHT22;6493;50.928;7.172;2023-04-25T15:43:43;10.00;47.60
12849;DHT22;6493;50.928;7.172;2023-04-25T15:48:50;9.90;47.10
12849;DHT22;6493;50.928;7.172;2023-04-25T15:53:53;9.80;47.30
12849;DHT22;6493;50.928;7.172;2023-04-25T15:58:58;9.80;47.90
12849;DHT22;6493;50.928;7.172;2023-04-25T16:04:01;9.70;46.80
12849;DHT22;6493;50.928;7.172;2023-04-25T16:09:05;9.60;47.00
12849;DHT22;6493;50.928;7.172;2023-04-25T16:14:10;9.40;47.40
12849;DHT22;6493;50.928;7.172;2023-04-25T16:19:13;9.30;46.90
12849;DHT22;6493;50.928;7.172;2023-04-25T16:24:16;9.20;47.20
12849;DHT22;6493;50.928;7.172;2023-04-25T16:29:21;9.10;47.20
12849;DHT22;6493;50.928;7.172;2023-04-25T16:34:24;9.00;46.90
12849;DHT22;6493;50.928;7.172;2023-04-25T16:39:28;8.90;46.90
12849;DHT22;6493;50.928;7.172;2023-04-25T16:44:32;8.90;47.10
12849;DHT22;6493;50.928;7.172;2023-04-25T16:49:36;8.80;47.00
12849;DHT22;6493;50.928;7.172;2023-04-25T16:54:39;8.80;47.20
12849;DHT22;6493;50.928;7.172;2023-04-25T16:59:44;8.80;47.10
12849;DHT22;6493;50.928;7.172;2023-04-25T17:04:47;8.80;47.70
12849;DHT22;6493;50.928;7.172;2023-04-25T17:09:51;8.80;47.10
12849;DHT22;6493;50.928;7.172;2023-04-25T17:14:55;8.70;46.90
12849;DHT22;6493;50.928;7.172;2023-04-25T17:19:58;8.60;46.90
12849;DHT22;6493;50.928;7.172;2023-04-25T17:25:02;8.50;46.90
12849;DHT22;6493;50.928;7.172;2023-04-25T17:30:08;8.50;47.00
12849;DHT22;6493;50.928;7.172;2023-04-25T17:35:11;8.50;47.10
12849;DHT22;6493;50.928;7.172;2023-04-25T17:40:16;8.50;47.00
12849;DHT22;6493;50.928;7.172;2023-04-25T17:45:21;8.40;46.80
12849;DHT22;6493;50.928;7.172;2023-04-25T17:50:24;8.30;46.60
12849;DHT22;6493;50.928;7.172;2023-04-25T17:55:28;8.20;46.40
12849;DHT22;6493;50.928;7.172;2023-04-25T18:00:32;8.10;46.10
12849;DHT22;6493;50.928;7.172;2023-04-25T18:05:36;8.00;46.40
12849;DHT22;6493;50.928;7.172;2023-04-25T18:10:39;7.90;46.50
12849;DHT22;6493;50.928;7.172;2023-04-25T18:15:43;7.80;46.60
12849;DHT22;6493;50.928;7.172;2023-04-25T18:20:47;7.80;46.50
12849;DHT22;6493;50.928;7.172;2023-04-25T18:25:50;7.70;46.50
12849;DHT22;6493;50.928;7.172;2023-04-25T18:30:56;7.60;46.50
12849;DHT22;6493;50.928;7.172;2023-04-25T18:35:59;7.60;46.50
12849;DHT22;6493;50.928;7.172;2023-04-25T18:41:02;7.60;46.70
12849;DHT22;6493;50.928;7.172;2023-04-25T18:46:27;7.50;46.60
12849;DHT22;6493;50.928;7.172;2023-04-25T18:51:30;7.40;46.50
12849;DHT22;6493;50.928;7.172;2023-04-25T18:56:33;7.30;46.30
12849;DHT22;6493;50.928;7.172;2023-04-25T19:01:38;7.20;46.40
12849;DHT22;6493;50.928;7.172;2023-04-25T19:06:42;7.10;46.30
12849;DHT22;6493;50.928;7.172;2023-04-25T19:11:47;7.00;46.30
12849;DHT22;6493;50.928;7.172;2023-04-25T19:16:51;6.90;46.40
12849;DHT22;6493;50.928;7.172;2023-04-25T19:21:54;6.80;46.30
12849;DHT22;6493;50.928;7.172;2023-04-25T19:26:58;6.70;46.40
12849;DHT22;6493;50.928;7.172;2023-04-25T19:32:02;6.70;46.50
12849;DHT22;6493;50.928;7.172;2023-04-25T19:37:05;6.60;46.40
12849;DHT22;6493;50.928;7.172;2023-04-25T19:42:09;6.60;47.10
12849;DHT22;6493;50.928;7.172;2023-04-25T19:47:14;6.50;46.40
12849;DHT22;6493;50.928;7.172;2023-04-25T19:52:17;6.40;46.40
12849;DHT22;6493;50.928;7.172;2023-04-25T19:57:20;6.30;46.40
12849;DHT22;6493;50.928;7.172;2023-04-25T20:02:31;6.30;46.50
12849;DHT22;6493;50.928;7.172;2023-04-25T20:07:39;6.20;46.40
12849;DHT22;6493;50.928;7.172;2023-04-25T20:12:43;6.10;47.00
12849;DHT22;6493;50.928;7.172;2023-04-25T20:17:47;6.00;46.40
12849;DHT22;6493;50.928;7.172;2023-04-25T20:22:51;5.90;47.00
12849;DHT22;6493;50.928;7.172;2023-04-25T20:27:56;5.80;46.40
12849;DHT22;6493;50.928;7.172;2023-04-25T20:33:01;5.80;46.50
12849;DHT22;6493;50.928;7.172;2023-04-25T20:38:07;5.70;46.60
12849;DHT22;6493;50.928;7.172;2023-04-25T20:43:13;5.60;46.60
12849;DHT22;6493;50.928;7.172;2023-04-25T20:48:18;5.50;46.60
12849;DHT22;6493;50.928;7.172;2023-04-25T20:53:22;5.40;46.50
12849;DHT22;6493;50.928;7.172;2023-04-25T20:58:25;5.30;46.50
12849;DHT22;6493;50.928;7.172;2023-04-25T21:03:30;5.20;47.10
12849;DHT22;6493;50.928;7.172;2023-04-25T21:08:34;5.10;46.70
12849;DHT22;6493;50.928;7.172;2023-04-25T21:13:41;5.00;46.70
12849;DHT22;6493;50.928;7.172;2023-04-25T21:18:45;4.90;46.70
12849;DHT22;6493;50.928;7.172;2023-04-25T21:23:48;4.80;46.70
12849;DHT22;6493;50.928;7.172;2023-04-25T21:28:52;4.70;46.80
12849;DHT22;6493;50.928;7.172;2023-04-25T21:33:57;4.70;46.80
12849;DHT22;6493;50.928;7.172;2023-04-25T21:39:00;4.60;46.80
12849;DHT22;6493;50.928;7.172;2023-04-25T21:44:03;4.50;46.80
12849;DHT22;6493;50.928;7.172;2023-04-25T21:49:08;4.40;47.40
12849;DHT22;6493;50.928;7.172;2023-04-25T21:54:12;4.30;46.90
12849;DHT22;6493;50.928;7.172;2023-04-25T21:59:15;4.20;46.80
12849;DHT22;6493;50.928;7.172;2023-04-25T22:04:20;4.10;46.90
12849;DHT22;6493;50.928;7.172;2023-04-25T22:09:25;4.00;46.90
12849;DHT22;6493;50.928;7.172;2023-04-25T22:14:29;4.00;47.10
12849;DHT22;6493;50.928;7.172;2023-04-25T22:19:34;3.90;47.10
12849;DHT22;6493;50.928;7.172;2023-04-25T22:24:41;3.90;47.30
12849;DHT22;6493;50.928;7.172;2023-04-25T22:29:47;3.90;47.40
12849;DHT22;6493;50.928;7.172;2023-04-25T22:34:52;3.90;47.40
12849;DHT22;6493;50.928;7.172;2023-04-25T22:39:56;3.90;47.40
12849;DHT22;6493;50.928;7.172;2023-04-25T22:45:02;3.90;47.40
12849;DHT22;6493;50.928;7.172;2023-04-25T22:50:10;3.90;47.50
12849;DHT22;6493;50.928;7.172;2023-04-25T22:55:18;3.90;47.50
12849;DHT22;6493;50.928;7.172;2023-04-25T23:00:23;3.80;47.50
12849;DHT22;6493;50.928;7.172;2023-04-25T23:05:32;3.70;48.30
12849;DHT22;6493;50.928;7.172;2023-04-25T23:10:36;3.70;48.40
12849;DHT22;6493;50.928;7.172;2023-04-25T23:15:39;3.70;48.50
12849;DHT22;6493;50.928;7.172;2023-04-25T23:20:44;3.60;48.40
12849;DHT22;6493;50.928;7.172;2023-04-25T23:25:47;3.60;48.50
12849;DHT22;6493;50.928;7.172;2023-04-25T23:30:50;3.50;48.40
12849;DHT22;6493;50.928;7.172;2023-04-25T23:35:55;3.50;48.50
12849;DHT22;6493;50.928;7.172;2023-04-25T23:40:58;3.40;48.50
12849;DHT22;6493;50.928;7.172;2023-04-25T23:46:01;3.30;48.40
12849;DHT22;6493;50.928;7.172;2023-04-25T23:51:06;3.30;48.50
12849;DHT22;6493;50.928;7.172;2023-04-25T23:56:09;3.20;48.40
